createdAt,value
2019-03-09T00:00:15.272Z,39.84
2019-03-09T00:02:48.833Z,39.57
2019-03-09T00:05:23.782Z,39.76
2019-03-09T00:07:58.589Z,39.68
2019-03-09T00:10:31.888Z,39.53
2019-03-09T00:13:05.683Z,39.83
2019-03-09T00:15:41.108Z,39.52
2019-03-09T00:18:14.626Z,39.88
2019-03-09T00:20:48.436Z,40.01
2019-03-09T00:23:23.559Z,39.93
2019-03-09T00:25:58.313Z,40.41
2019-03-09T00:28:33.611Z,40.00
2019-03-09T00:31:07.218Z,39.81
2019-03-09T00:33:40.828Z,39.83
2019-03-09T00:36:16.263Z,39.99
2019-03-09T00:38:49.608Z,39.79
2019-03-09T00:41:23.917Z,38.66
2019-03-09T00:43:57.935Z,38.36
2019-03-09T00:46:31.755Z,39.18
2019-03-09T00:49:05.593Z,39.19
2019-03-09T00:51:39.443Z,38.67
2019-03-09T00:54:15.282Z,37.66
2019-03-09T00:56:49.434Z,38.19
2019-03-09T00:59:24.064Z,37.60
2019-03-09T01:02:00.660Z,37.75
2019-03-09T01:04:36.303Z,38.72
2019-03-09T01:07:10.790Z,38.57
2019-03-09T01:09:45.268Z,38.32
2019-03-09T01:12:21.408Z,38.09
2019-03-09T01:14:57.758Z,37.06
2019-03-09T01:17:31.815Z,36.22
2019-03-09T01:20:06.608Z,35.21
2019-03-09T01:22:41.659Z,35.47
2019-03-09T01:25:18.220Z,36.30
2019-03-09T01:27:52.208Z,36.32
2019-03-09T01:30:28.042Z,35.64
2019-03-09T01:33:02.555Z,36.53
2019-03-09T01:35:37.367Z,36.58
2019-03-09T01:38:14.069Z,36.11
2019-03-09T01:40:50.437Z,35.78
2019-03-09T01:43:25.801Z,35.14
2019-03-09T01:46:02.199Z,35.38
2019-03-09T01:48:37.154Z,35.71
2019-03-09T01:51:11.651Z,36.04
2019-03-09T01:53:45.724Z,35.55
2019-03-09T01:56:19.676Z,36.57
2019-03-09T01:58:54.822Z,36.78
2019-03-09T02:01:28.693Z,37.19
2019-03-09T02:04:02.204Z,36.08
2019-03-09T02:06:36.242Z,36.86
2019-03-09T02:09:11.474Z,37.77
2019-03-09T02:11:45.773Z,37.60
2019-03-09T02:14:20.371Z,38.35
2019-03-09T02:16:54.718Z,37.94
2019-03-09T02:19:29.148Z,37.80
2019-03-09T02:22:08.613Z,36.97
2019-03-09T02:24:43.942Z,36.64
2019-03-09T02:27:18.854Z,36.61
2019-03-09T02:29:52.797Z,36.87
2019-03-09T02:32:27.426Z,35.80
2019-03-09T02:35:05.294Z,36.71
2019-03-09T02:37:40.321Z,37.62
2019-03-09T02:40:15.580Z,37.37
2019-03-09T02:42:51.442Z,35.91
2019-03-09T02:45:27.113Z,35.58
2019-03-09T02:48:02.790Z,36.13
2019-03-09T02:50:38.586Z,36.15
2019-03-09T02:53:16.193Z,36.41
2019-03-09T02:55:55.180Z,36.16
2019-03-09T02:58:30.471Z,36.50
2019-03-09T03:01:06.490Z,36.81
2019-03-09T03:03:46.488Z,36.79
2019-03-09T03:06:26.430Z,36.37
2019-03-09T03:09:02.276Z,36.26
2019-03-09T03:11:37.660Z,35.78
2019-03-09T03:14:15.251Z,35.74
2019-03-09T03:16:51.608Z,35.91
2019-03-09T03:19:27.088Z,36.08
2019-03-09T03:22:01.757Z,35.89
2019-03-09T03:24:37.393Z,35.66
2019-03-09T03:27:12.147Z,36.30
2019-03-09T03:29:46.781Z,35.89
2019-03-09T03:32:21.179Z,35.33
2019-03-09T03:34:55.804Z,35.33
2019-03-09T03:37:36.208Z,34.37
2019-03-09T03:40:17.290Z,33.80
2019-03-09T03:42:51.306Z,33.73
2019-03-09T03:45:26.537Z,33.36
2019-03-09T03:48:01.327Z,32.24
2019-03-09T03:50:35.390Z,31.67
2019-03-09T03:53:11.225Z,30.85
2019-03-09T03:55:44.746Z,31.36
2019-03-09T03:58:20.305Z,30.69
2019-03-09T04:00:55.742Z,30.15
2019-03-09T04:03:31.617Z,28.69
2019-03-09T04:06:25.492Z,30.81
2019-03-09T04:08:59.912Z,31.90
2019-03-09T04:11:34.436Z,31.23
2019-03-09T04:14:11.917Z,30.42
2019-03-09T04:16:48.598Z,30.94
2019-03-09T04:19:23.915Z,32.05
2019-03-09T04:21:59.629Z,31.69
2019-03-09T04:24:36.288Z,31.88
2019-03-09T04:27:11.499Z,31.03
2019-03-09T04:29:46.493Z,30.97
2019-03-09T04:32:23.545Z,31.06
2019-03-09T04:35:03.613Z,30.44
2019-03-09T04:37:38.717Z,29.70
2019-03-09T04:40:15.672Z,29.67
2019-03-09T04:42:52.458Z,28.24
2019-03-09T04:45:29.352Z,29.00
2019-03-09T04:48:04.410Z,28.86
2019-03-09T04:50:43.041Z,29.40
2019-03-09T04:53:18.165Z,29.27
2019-03-09T04:55:55.060Z,29.05
2019-03-09T04:58:30.558Z,28.49
2019-03-09T05:01:04.552Z,28.04
2019-03-09T05:03:38.577Z,27.96
2019-03-09T05:06:12.702Z,27.93
2019-03-09T05:09:06.927Z,27.42
2019-03-09T05:11:52.157Z,27.44
2019-03-09T05:14:27.085Z,26.82
2019-03-09T05:17:06.553Z,27.04
2019-03-09T05:19:41.318Z,26.78
2019-03-09T05:22:19.679Z,26.32
2019-03-09T05:24:56.013Z,25.52
2019-03-09T05:27:30.899Z,25.91
2019-03-09T05:30:11.484Z,25.75
2019-03-09T05:32:46.655Z,25.57
2019-03-09T05:35:22.467Z,24.84
2019-03-09T05:37:57.362Z,24.90
2019-03-09T05:40:37.782Z,24.90
2019-03-09T05:43:16.574Z,24.93
2019-03-09T05:45:52.920Z,24.88
2019-03-09T05:48:27.621Z,24.63
2019-03-09T05:51:02.097Z,24.26
2019-03-09T05:53:37.502Z,23.99
2019-03-09T05:56:14.508Z,23.84
2019-03-09T05:58:50.600Z,23.73
2019-03-09T06:01:27.660Z,23.83
2019-03-09T06:04:03.661Z,23.61
2019-03-09T06:06:38.481Z,23.20
2019-03-09T06:09:13.539Z,22.55
2019-03-09T06:11:52.001Z,21.62
2019-03-09T06:14:30.508Z,21.17
2019-03-09T06:17:07.809Z,21.37
2019-03-09T06:19:43.075Z,21.91
2019-03-09T06:22:23.069Z,22.55
2019-03-09T06:24:59.233Z,22.22
2019-03-09T06:27:36.391Z,22.08
2019-03-09T06:30:15.150Z,21.91
2019-03-09T06:33:14.709Z,22.06
2019-03-09T06:35:53.183Z,21.37
2019-03-09T06:38:43.777Z,21.66
2019-03-09T06:41:41.922Z,21.77
2019-03-09T06:44:19.980Z,21.65
2019-03-09T06:46:55.192Z,21.29
2019-03-09T06:49:31.290Z,21.76
2019-03-09T06:52:09.624Z,21.75
2019-03-09T06:54:44.946Z,21.83
2019-03-09T06:57:22.166Z,22.01
2019-03-09T07:00:02.199Z,22.11
2019-03-09T07:02:39.887Z,21.73
2019-03-09T07:05:18.043Z,21.15
2019-03-09T07:07:53.082Z,21.40
2019-03-09T07:10:28.536Z,21.79
2019-03-09T07:13:03.783Z,22.16
2019-03-09T07:15:44.548Z,21.92
2019-03-09T07:18:26.202Z,21.52
2019-03-09T07:21:08.913Z,21.49
2019-03-09T07:23:57.174Z,22.16
2019-03-09T07:26:39.930Z,21.58
2019-03-09T07:29:17.789Z,21.30
2019-03-09T07:31:52.948Z,21.18
2019-03-09T07:34:31.398Z,21.37
2019-03-09T07:37:12.667Z,21.32
2019-03-09T07:39:51.481Z,21.14
2019-03-09T07:42:30.369Z,21.02
2019-03-09T07:45:07.478Z,21.03
2019-03-09T07:47:48.698Z,21.83
2019-03-09T07:50:25.655Z,21.16
2019-03-09T07:53:03.136Z,20.94
2019-03-09T07:55:47.175Z,20.97
2019-03-09T07:58:27.182Z,20.86
2019-03-09T08:01:02.689Z,20.76
2019-03-09T08:03:38.165Z,21.09
2019-03-09T08:06:16.038Z,20.91
2019-03-09T08:09:02.953Z,20.47
2019-03-09T08:11:40.254Z,21.35
2019-03-09T08:14:27.181Z,20.66
2019-03-09T08:17:05.691Z,20.52
2019-03-09T08:19:43.661Z,20.11
2019-03-09T08:22:23.284Z,20.29
2019-03-09T08:25:03.579Z,20.14
2019-03-09T08:27:43.372Z,20.25
2019-03-09T08:30:20.584Z,20.53
2019-03-09T08:32:57.666Z,20.44
2019-03-09T08:35:32.994Z,20.80
2019-03-09T08:38:08.461Z,20.71
2019-03-09T08:40:44.572Z,20.66
2019-03-09T08:43:19.467Z,20.77
2019-03-09T08:45:54.918Z,20.78
2019-03-09T08:48:32.143Z,20.98
2019-03-09T08:51:10.061Z,20.74
2019-03-09T08:53:47.109Z,20.31
2019-03-09T08:56:22.560Z,20.39
2019-03-09T08:58:59.427Z,20.25
2019-03-09T09:01:35.718Z,20.44
2019-03-09T09:04:16.765Z,20.43
2019-03-09T09:06:55.847Z,20.77
2019-03-09T09:09:31.890Z,21.00
2019-03-09T09:12:08.818Z,21.09
2019-03-09T09:14:43.787Z,21.33
2019-03-09T09:17:21.267Z,21.28
2019-03-09T09:19:56.198Z,21.13
2019-03-09T09:22:31.346Z,20.76
2019-03-09T09:25:11.203Z,20.98
2019-03-09T09:27:52.699Z,21.14
2019-03-09T09:30:29.779Z,21.19
2019-03-09T09:33:10.283Z,21.49
2019-03-09T09:35:45.543Z,21.30
2019-03-09T09:38:20.802Z,20.97
2019-03-09T09:41:01.452Z,21.05
2019-03-09T09:43:37.591Z,21.34
2019-03-09T09:46:14.724Z,21.27
2019-03-09T09:48:53.219Z,21.13
2019-03-09T09:51:30.912Z,21.03
2019-03-09T09:54:16.780Z,21.03
2019-03-09T09:57:01.777Z,21.33
2019-03-09T09:59:46.964Z,21.25
2019-03-09T10:02:27.508Z,21.18
2019-03-09T10:05:09.613Z,21.24
2019-03-09T10:07:48.360Z,21.48
2019-03-09T10:10:24.961Z,21.42
2019-03-09T10:13:02.136Z,21.68
2019-03-09T10:15:39.398Z,21.77
2019-03-09T10:18:16.166Z,21.86
2019-03-09T10:20:51.324Z,21.97
2019-03-09T10:23:26.570Z,21.74
2019-03-09T10:26:08.101Z,22.23
2019-03-09T10:28:43.635Z,22.49
2019-03-09T10:31:20.562Z,22.71
2019-03-09T10:33:55.836Z,22.42
2019-03-09T10:36:31.119Z,21.96
2019-03-09T10:39:07.389Z,22.10
2019-03-09T10:41:48.149Z,22.28
2019-03-09T10:44:25.561Z,22.10
2019-03-09T10:47:02.409Z,22.69
2019-03-09T10:50:03.515Z,22.12
2019-03-09T10:52:41.530Z,22.25
2019-03-09T10:55:23.621Z,22.44
2019-03-09T10:58:03.225Z,22.58
2019-03-09T11:00:45.987Z,23.15
2019-03-09T11:03:24.428Z,23.61
2019-03-09T11:05:58.948Z,23.90
2019-03-09T11:08:37.249Z,23.77
2019-03-09T11:11:14.252Z,23.77
2019-03-09T11:13:52.224Z,23.57
2019-03-09T11:16:30.706Z,23.10
2019-03-09T11:19:11.962Z,23.27
2019-03-09T11:21:51.577Z,22.89
2019-03-09T11:24:26.651Z,22.85
2019-03-09T11:27:01.919Z,22.56
2019-03-09T11:29:39.009Z,22.64
2019-03-09T11:32:15.102Z,22.85
2019-03-09T11:34:52.643Z,22.79
2019-03-09T11:37:32.510Z,22.58
2019-03-09T11:40:07.760Z,23.13
2019-03-09T11:42:47.669Z,22.83
2019-03-09T11:45:27.894Z,22.83
2019-03-09T11:48:07.648Z,23.43
2019-03-09T11:50:44.684Z,23.58
2019-03-09T11:53:21.883Z,23.57
2019-03-09T11:56:00.294Z,23.37
2019-03-09T11:58:45.905Z,23.29
2019-03-09T12:01:21.906Z,23.29
2019-03-09T12:03:57.238Z,24.12
2019-03-09T12:06:34.613Z,23.62
2019-03-09T12:09:13.032Z,23.07
2019-03-09T12:14:41.615Z,22.56
2019-03-09T12:17:16.891Z,22.56
2019-03-09T12:19:57.853Z,22.24
2019-03-09T12:22:35.062Z,22.57
2019-03-09T12:25:12.430Z,22.93
2019-03-09T12:28:00.551Z,23.06
2019-03-09T12:30:35.949Z,24.21
2019-03-09T12:33:14.691Z,23.81
2019-03-09T12:35:50.268Z,24.03
2019-03-09T12:38:37.794Z,24.14
2019-03-09T12:41:15.358Z,24.60
2019-03-09T12:43:50.735Z,25.13
2019-03-09T12:46:27.969Z,24.91
2019-03-09T12:49:08.448Z,24.97
2019-03-09T12:51:45.076Z,25.52
2019-03-09T12:54:22.405Z,25.38
2019-03-09T12:56:58.491Z,26.40
2019-03-09T12:59:33.993Z,24.91
2019-03-09T13:02:11.342Z,26.00
2019-03-09T13:04:48.372Z,25.79
2019-03-09T13:07:24.365Z,25.93
2019-03-09T13:10:05.309Z,26.15
2019-03-09T13:12:41.459Z,26.75
2019-03-09T13:15:23.506Z,26.54
2019-03-09T13:20:52.734Z,26.88
2019-03-09T13:23:31.251Z,27.25
2019-03-09T13:26:17.384Z,26.27
2019-03-09T13:28:54.596Z,27.42
2019-03-09T13:34:13.123Z,27.86
2019-03-09T13:39:51.060Z,27.02
2019-03-09T13:42:31.991Z,27.06
2019-03-09T13:45:13.031Z,27.20
2019-03-09T13:47:50.444Z,26.88
2019-03-09T13:50:26.405Z,27.30
2019-03-09T13:53:03.652Z,26.88
2019-03-09T13:55:40.902Z,27.86
2019-03-09T13:58:21.794Z,28.55
2019-03-09T14:01:01.739Z,28.14
2019-03-09T14:03:47.101Z,27.68
2019-03-09T14:06:29.304Z,27.24
2019-03-09T14:12:22.454Z,27.44
2019-03-09T14:14:34.128Z,28.08
2019-03-09T14:17:09.494Z,28.40
2019-03-09T14:19:44.875Z,27.69
2019-03-09T14:22:21.026Z,28.46
2019-03-09T14:25:01.290Z,28.11
2019-03-09T14:27:36.664Z,28.15
2019-03-09T14:30:27.160Z,28.16
2019-03-09T14:33:02.572Z,29.08
2019-03-09T14:35:43.589Z,28.84
2019-03-09T14:41:17.487Z,27.93
2019-03-09T14:43:54.283Z,28.81
2019-03-09T14:46:33.581Z,28.96
2019-03-09T14:49:10.025Z,30.25
2019-03-09T14:51:46.511Z,30.69
2019-03-09T14:54:21.856Z,30.26
2019-03-09T14:57:02.223Z,30.11
2019-03-09T14:59:42.019Z,30.34
2019-03-09T15:02:22.900Z,30.40
2019-03-09T15:04:58.749Z,30.68
2019-03-09T15:07:38.185Z,30.38
2019-03-09T15:10:17.363Z,29.62
2019-03-09T15:12:52.829Z,30.09
2019-03-09T15:15:31.568Z,29.63
2019-03-09T15:18:06.895Z,30.06
2019-03-09T15:23:37.227Z,30.55
2019-03-09T15:26:12.360Z,30.53
2019-03-09T15:28:49.400Z,31.53
2019-03-09T15:31:24.657Z,32.14
2019-03-09T15:34:00.196Z,32.20
2019-03-09T15:36:36.630Z,32.23
2019-03-09T15:39:13.315Z,31.73
2019-03-09T15:41:49.266Z,31.15
2019-03-09T15:44:26.038Z,32.24
2019-03-09T15:47:01.094Z,32.62
2019-03-09T15:49:41.368Z,33.24
2019-03-09T15:52:18.132Z,33.53
2019-03-09T15:54:53.670Z,33.52
2019-03-09T15:57:27.866Z,33.42
2019-03-09T16:00:01.738Z,33.58
2019-03-09T16:02:35.541Z,33.42
2019-03-09T16:05:09.347Z,34.13
2019-03-09T16:07:43.027Z,33.82
2019-03-09T16:10:21.466Z,33.54
2019-03-09T16:12:56.268Z,33.12
2019-03-09T16:15:35.511Z,32.76
2019-03-09T16:18:10.403Z,32.87
2019-03-09T16:20:45.951Z,33.25
2019-03-09T16:23:22.193Z,32.81
2019-03-09T16:25:58.519Z,33.42
2019-03-09T16:28:33.332Z,33.53
2019-03-09T16:31:09.377Z,33.52
2019-03-09T16:33:44.256Z,33.91
2019-03-09T16:36:19.031Z,33.35
2019-03-09T16:38:53.807Z,32.53
2019-03-09T16:41:28.714Z,32.38
2019-03-09T16:44:03.783Z,33.08
2019-03-09T16:46:38.617Z,33.66
2019-03-09T16:49:16.458Z,33.13
2019-03-09T16:51:52.506Z,31.93
2019-03-09T16:54:29.076Z,31.91
2019-03-09T16:57:03.884Z,31.83
2019-03-09T16:59:40.140Z,32.63
2019-03-09T17:02:14.679Z,32.88
2019-03-09T17:04:49.326Z,33.86
2019-03-09T17:07:24.300Z,32.91
2019-03-09T17:09:58.180Z,32.91
2019-03-09T17:12:32.026Z,32.43
2019-03-09T17:15:08.758Z,32.64
2019-03-09T17:17:43.966Z,32.42
2019-03-09T17:20:20.217Z,32.95
2019-03-09T17:22:54.727Z,32.51
2019-03-09T17:25:30.618Z,32.82
2019-03-09T17:28:06.600Z,33.44
2019-03-09T17:30:41.351Z,34.17
2019-03-09T17:33:17.521Z,32.68
2019-03-09T17:35:54.640Z,31.90
2019-03-09T17:38:29.037Z,32.22
2019-03-09T17:41:07.587Z,32.56
2019-03-09T17:43:41.835Z,33.73
2019-03-09T17:46:15.926Z,34.71
2019-03-09T17:48:51.975Z,34.80
2019-03-09T17:51:26.103Z,35.39
2019-03-09T17:53:59.999Z,34.36
2019-03-09T17:56:35.710Z,33.97
2019-03-09T17:59:11.657Z,35.03
2019-03-09T18:01:46.438Z,35.73
2019-03-09T18:04:20.278Z,35.82
2019-03-09T18:06:54.911Z,35.67
2019-03-09T18:09:31.437Z,35.30
2019-03-09T18:12:07.993Z,36.48
2019-03-09T18:14:42.286Z,35.89
2019-03-09T18:17:18.923Z,34.79
2019-03-09T18:19:53.998Z,34.94
2019-03-09T18:22:29.459Z,35.34
2019-03-09T18:25:03.356Z,35.11
2019-03-09T18:27:37.497Z,35.23
2019-03-09T18:30:13.487Z,35.53
2019-03-09T18:32:47.970Z,36.61
2019-03-09T18:35:23.981Z,35.63
2019-03-09T18:38:00.103Z,35.39
2019-03-09T18:40:34.155Z,35.46
2019-03-09T18:43:08.030Z,36.21
2019-03-09T18:45:42.045Z,36.13
2019-03-09T18:48:19.919Z,36.98
2019-03-09T18:50:55.332Z,36.87
2019-03-09T18:53:28.919Z,37.04
2019-03-09T18:56:03.730Z,35.62
2019-03-09T18:58:37.109Z,36.43
2019-03-09T19:01:10.538Z,37.15
2019-03-09T19:03:43.825Z,37.74
2019-03-09T19:06:17.549Z,38.00
2019-03-09T19:08:50.949Z,37.29
2019-03-09T19:11:25.525Z,36.30
2019-03-09T19:13:58.714Z,35.77
2019-03-09T19:16:31.995Z,35.92
2019-03-09T19:19:05.194Z,37.69
2019-03-09T19:21:38.487Z,37.55
2019-03-09T19:24:11.709Z,35.46
2019-03-09T19:26:45.002Z,35.86
2019-03-09T19:29:18.244Z,36.23
2019-03-09T19:31:51.650Z,37.13
2019-03-09T19:34:24.938Z,37.43
2019-03-09T19:36:58.225Z,37.90
2019-03-09T19:39:31.563Z,37.39
2019-03-09T19:42:04.788Z,37.24
2019-03-09T19:44:38.225Z,36.56
2019-03-09T19:47:11.637Z,37.33
2019-03-09T19:49:44.901Z,37.90
2019-03-09T19:52:19.736Z,38.72
2019-03-09T19:54:52.949Z,39.06
2019-03-09T19:57:26.164Z,38.53
2019-03-09T19:59:59.417Z,38.55
2019-03-09T20:02:34.293Z,39.34
2019-03-09T20:05:09.405Z,39.67
2019-03-09T20:07:42.862Z,39.03
2019-03-09T20:10:23.801Z,38.49
2019-03-09T20:12:58.541Z,38.04
2019-03-09T20:15:32.061Z,38.14
2019-03-09T20:18:05.384Z,38.17
2019-03-09T20:20:38.673Z,37.74
2019-03-09T20:23:13.219Z,37.61
2019-03-09T20:25:46.632Z,37.70
2019-03-09T20:28:19.989Z,39.20
2019-03-09T20:30:53.281Z,38.69
2019-03-09T20:33:26.600Z,39.39
2019-03-09T20:35:59.880Z,38.78
2019-03-09T20:38:33.063Z,37.70
2019-03-09T20:41:08.071Z,38.25
2019-03-09T20:43:41.367Z,38.11
2019-03-09T20:46:14.585Z,38.81
2019-03-09T20:48:49.389Z,39.33
2019-03-09T20:51:22.786Z,39.42
2019-03-09T20:53:56.086Z,39.12
2019-03-09T20:56:29.545Z,39.72
2019-03-09T20:59:02.899Z,38.84
2019-03-09T21:04:17.968Z,38.79
2019-03-09T21:06:52.153Z,38.68
2019-03-09T21:09:25.386Z,38.35
2019-03-09T21:11:58.695Z,39.09
2019-03-09T21:14:33.837Z,39.20
2019-03-09T21:17:07.392Z,39.68
2019-03-09T21:19:40.588Z,39.27
2019-03-09T21:22:14.047Z,39.42
2019-03-09T21:24:47.301Z,40.62
2019-03-09T21:27:20.562Z,40.24
2019-03-09T21:29:53.869Z,41.50
2019-03-09T21:32:27.135Z,41.27
2019-03-09T21:35:03.817Z,41.62
2019-03-09T21:37:37.227Z,41.54
2019-03-09T21:40:11.124Z,40.94
2019-03-09T21:42:44.385Z,40.37
2019-03-09T21:45:18.136Z,40.03
2019-03-09T21:47:51.506Z,40.86
2019-03-09T21:50:24.943Z,40.94
2019-03-09T21:52:59.202Z,41.32
2019-03-09T21:55:32.587Z,41.67
2019-03-09T21:58:05.932Z,41.64
2019-03-09T22:00:39.255Z,41.66
2019-03-09T22:03:12.680Z,41.16
2019-03-09T22:05:45.907Z,40.39
2019-03-09T22:08:19.271Z,40.80
2019-03-09T22:10:53.164Z,41.69
2019-03-09T22:13:26.515Z,42.06
2019-03-09T22:15:59.754Z,42.31
2019-03-09T22:18:36.296Z,42.42
2019-03-09T22:21:11.850Z,42.36
2019-03-09T22:23:44.465Z,42.51
2019-03-09T22:26:18.117Z,42.78
2019-03-09T22:28:51.460Z,42.49
2019-03-09T22:31:28.124Z,42.04
2019-03-09T22:34:06.230Z,42.46
2019-03-09T22:36:40.765Z,42.47
2019-03-09T22:39:15.322Z,44.20
2019-03-09T22:41:50.228Z,44.80
2019-03-09T22:44:23.548Z,44.43
2019-03-09T22:46:58.906Z,43.29
2019-03-09T22:49:32.241Z,42.67
2019-03-09T22:52:05.506Z,42.72
2019-03-09T22:54:39.166Z,41.97
2019-03-09T22:57:12.569Z,41.02
2019-03-09T22:59:45.894Z,41.93
2019-03-09T23:02:20.578Z,43.47
2019-03-09T23:04:58.139Z,43.15
2019-03-09T23:07:31.433Z,42.92
2019-03-09T23:10:06.281Z,42.62
2019-03-09T23:12:42.274Z,42.18
2019-03-09T23:15:19.835Z,41.41
2019-03-09T23:17:53.929Z,41.34
2019-03-09T23:20:28.166Z,40.14
2019-03-09T23:23:03.189Z,40.81
2019-03-09T23:25:38.447Z,38.84
2019-03-09T23:28:12.303Z,38.62
2019-03-09T23:30:46.002Z,38.23
2019-03-09T23:33:21.553Z,37.01
2019-03-09T23:35:55.904Z,36.90
2019-03-09T23:38:30.686Z,33.36
2019-03-09T23:41:06.132Z,33.16
2019-03-09T23:43:40.416Z,33.47
2019-03-09T23:46:14.525Z,32.18
2019-03-09T23:48:50.335Z,30.27
2019-03-09T23:51:25.826Z,29.26
2019-03-09T23:54:01.221Z,28.24
2019-03-09T23:56:35.215Z,29.02
2019-03-09T23:59:17.833Z,28.33
